Time;durP1;ratioP1;P1;durP2;ratioP2;P2;SDS_P1;SDS_P2;PMS_P1;PMS_P2;Temp;Humidity;BMP_temperature;BMP_pressure;BME280_temperature;BME280_humidity;BME280_pressure;Samples;Min_cycle;Max_cycle;Signal;HPM_P1;HPM_P2
2021/07/03 00:02:00;;;;;;;2.73;2.55;;;;;;;;;;256894;1096;103027;-71
2021/07/03 00:07:02;;;;;;;2.33;2.13;;;;;;;;;;257076;1096;103604;-74
2021/07/03 00:12:06;;;;;;;2.45;2.25;;;;;;;;;;257304;1097;103358;-73
2021/07/03 00:22:44;;;;;;;2.45;2.25;;;;;;;;;;254761;1095;103102;-72
2021/07/03 00:27:46;;;;;;;2.35;2.20;;;;;;;;;;254628;1096;103137;-71
2021/07/03 00:32:48;;;;;;;2.50;2.30;;;;;;;;;;255002;1094;103099;-73
2021/07/03 00:37:50;;;;;;;2.78;2.58;;;;;;;;;;255071;1097;103166;-70
2021/07/03 00:42:52;;;;;;;2.73;2.53;;;;;;;;;;255019;1096;103118;-72
2021/07/03 00:47:54;;;;;;;3.78;2.65;;;;;;;;;;255088;1096;103572;-72
2021/07/03 00:52:55;;;;;;;4.13;3.83;;;;;;;;;;255486;1095;103124;-73
2021/07/03 00:57:57;;;;;;;3.00;2.70;;;;;;;;;;255315;1097;103042;-72
2021/07/03 01:02:59;;;;;;;4.08;3.78;;;;;;;;;;255828;1096;103146;-71
2021/07/03 01:08:01;;;;;;;3.58;3.38;;;;;;;;;;254748;1097;103519;-73
2021/07/03 01:13:03;;;;;;;4.40;4.00;;;;;;;;;;254863;1096;103055;-72
2021/07/03 01:18:05;;;;;;;3.63;3.33;;;;;;;;;;254950;1096;103115;-72
2021/07/03 01:23:07;;;;;;;3.15;2.88;;;;;;;;;;254862;1096;103031;-72
2021/07/03 01:28:08;;;;;;;2.95;2.75;;;;;;;;;;255058;1096;103121;-72
2021/07/03 01:33:10;;;;;;;2.78;2.60;;;;;;;;;;254867;1096;103094;-72
2021/07/03 01:38:19;;;;;;;4.27;2.87;;;;;;;;;;255384;1096;103118;-71
2021/07/03 01:43:22;;;;;;;3.30;3.10;;;;;;;;;;255482;1096;103059;-72
2021/07/03 01:48:29;;;;;;;7.63;6.83;;;;;;;;;;255018;1096;103039;-72
2021/07/03 01:53:31;;;;;;;3.10;2.63;;;;;;;;;;255025;1096;103135;-72
2021/07/03 01:58:33;;;;;;;4.23;2.90;;;;;;;;;;255216;1095;103162;-72
2021/07/03 02:03:35;;;;;;;2.78;2.58;;;;;;;;;;255036;1096;103121;-72
2021/07/03 02:08:37;;;;;;;4.65;3.23;;;;;;;;;;255313;1096;103136;-73
2021/07/03 02:13:39;;;;;;;2.77;2.40;;;;;;;;;;255005;1095;103076;-71
2021/07/03 02:18:40;;;;;;;2.40;2.30;;;;;;;;;;255422;1095;103090;-72
2021/07/03 02:23:42;;;;;;;2.65;2.45;;;;;;;;;;254916;1095;103148;-72
2021/07/03 02:28:45;;;;;;;3.50;3.20;;;;;;;;;;255809;1096;103096;-72
2021/07/03 02:33:47;;;;;;;2.98;2.78;;;;;;;;;;255043;1096;103035;-71
2021/07/03 02:38:49;;;;;;;3.73;3.33;;;;;;;;;;254969;1097;103367;-72
2021/07/03 02:43:51;;;;;;;3.40;3.20;;;;;;;;;;260224;1095;103269;-74
2021/07/03 02:48:53;;;;;;;4.28;3.98;;;;;;;;;;256027;1095;103025;-71
2021/07/03 02:53:55;;;;;;;4.95;3.28;;;;;;;;;;255075;1096;103282;-72
2021/07/03 02:58:57;;;;;;;3.23;3.03;;;;;;;;;;254920;1096;103113;-72
2021/07/03 03:03:59;;;;;;;3.75;3.45;;;;;;;;;;255378;1096;104442;-72
2021/07/03 03:09:00;;;;;;;4.03;3.58;;;;;;;;;;255168;1095;103073;-72
2021/07/03 03:14:03;;;;;;;4.88;3.18;;;;;;;;;;254919;1096;103209;-71
2021/07/03 03:19:04;;;;;;;2.75;2.55;;;;;;;;;;255378;1095;103098;-72
2021/07/03 03:24:06;;;;;;;3.20;3.00;;;;;;;;;;255789;1096;103110;-74
2021/07/03 03:29:08;;;;;;;3.28;3.03;;;;;;;;;;255069;1096;103095;-73
2021/07/03 03:34:10;;;;;;;3.63;3.30;;;;;;;;;;255158;1096;103031;-72
2021/07/03 03:39:12;;;;;;;3.50;3.20;;;;;;;;;;254998;1097;103118;-73
2021/07/03 03:44:14;;;;;;;4.38;3.80;;;;;;;;;;255224;1097;103108;-73
2021/07/03 03:49:16;;;;;;;3.80;3.50;;;;;;;;;;255363;1096;103146;-72
2021/07/03 03:54:18;;;;;;;4.83;4.00;;;;;;;;;;254880;1095;103151;-73
2021/07/03 03:59:20;;;;;;;6.48;3.80;;;;;;;;;;255455;1095;103150;-73
2021/07/03 04:04:22;;;;;;;4.15;3.68;;;;;;;;;;255565;1097;103057;-73
2021/07/03 04:09:24;;;;;;;3.85;3.60;;;;;;;;;;255954;1097;103352;-74
2021/07/03 04:14:26;;;;;;;3.68;3.40;;;;;;;;;;256000;1097;103113;-74
2021/07/03 04:19:28;;;;;;;3.03;2.73;;;;;;;;;;255215;1096;103095;-72
2021/07/03 04:24:30;;;;;;;2.95;2.75;;;;;;;;;;254938;1096;103183;-73
2021/07/03 04:29:32;;;;;;;3.00;2.80;;;;;;;;;;255055;1096;103131;-73
2021/07/03 04:34:33;;;;;;;2.90;2.70;;;;;;;;;;255034;1096;103112;-73
2021/07/03 04:39:35;;;;;;;3.00;2.80;;;;;;;;;;254976;1095;103090;-73
2021/07/03 04:44:37;;;;;;;4.55;3.00;;;;;;;;;;255019;1096;103111;-72
2021/07/03 04:49:39;;;;;;;3.38;3.13;;;;;;;;;;254926;1096;103019;-74
2021/07/03 04:54:41;;;;;;;3.73;3.38;;;;;;;;;;255508;1095;103121;-72
2021/07/03 04:59:43;;;;;;;3.23;3.03;;;;;;;;;;255197;1097;103097;-73
2021/07/03 05:04:46;;;;;;;3.98;3.63;;;;;;;;;;254907;1096;103105;-71
2021/07/03 05:09:48;;;;;;;5.28;3.60;;;;;;;;;;255486;1096;103444;-72
2021/07/03 05:14:50;;;;;;;2.85;2.70;;;;;;;;;;255456;1096;103205;-72
2021/07/03 05:19:52;;;;;;;4.90;3.18;;;;;;;;;;255570;1095;103057;-72
2021/07/03 05:24:54;;;;;;;4.10;2.90;;;;;;;;;;256515;1095;103028;-72
2021/07/03 05:29:56;;;;;;;3.68;3.38;;;;;;;;;;255049;1096;103041;-71
2021/07/03 05:34:57;;;;;;;3.30;3.00;;;;;;;;;;255395;1094;103064;-71
2021/07/03 05:39:59;;;;;;;4.08;3.10;;;;;;;;;;255330;1096;103604;-74
2021/07/03 05:45:01;;;;;;;3.15;2.90;;;;;;;;;;254863;1096;103156;-72
2021/07/03 05:50:04;;;;;;;4.25;3.05;;;;;;;;;;256381;1096;103037;-73
2021/07/03 05:55:06;;;;;;;4.13;3.73;;;;;;;;;;256692;1096;104119;-74
2021/07/03 06:00:09;;;;;;;3.28;3.00;;;;;;;;;;256918;1095;103137;-73
2021/07/03 06:05:10;;;;;;;3.70;3.30;;;;;;;;;;254807;1097;103223;-74
2021/07/03 06:10:13;;;;;;;3.35;3.05;;;;;;;;;;255054;1096;103031;-72
2021/07/03 06:15:14;;;;;;;3.45;3.25;;;;;;;;;;255638;1096;103147;-74
2021/07/03 06:20:16;;;;;;;3.43;3.10;;;;;;;;;;255263;1096;103450;-72
2021/07/03 06:25:18;;;;;;;3.13;2.93;;;;;;;;;;256019;1096;103159;-73
2021/07/03 06:30:20;;;;;;;3.38;3.05;;;;;;;;;;255009;1095;103110;-75
2021/07/03 06:35:22;;;;;;;3.78;3.48;;;;;;;;;;256103;1096;103093;-72
2021/07/03 06:40:24;;;;;;;3.28;2.98;;;;;;;;;;255198;1094;103127;-72
2021/07/03 06:45:26;;;;;;;2.83;2.63;;;;;;;;;;255055;1094;103041;-72
2021/07/03 06:50:28;;;;;;;3.60;2.50;;;;;;;;;;254909;1096;103508;-72
2021/07/03 06:55:30;;;;;;;2.97;2.77;;;;;;;;;;255299;1095;188967;-71
2021/07/03 07:00:31;;;;;;;2.70;2.50;;;;;;;;;;255046;1095;103495;-71
2021/07/03 07:05:33;;;;;;;3.65;3.38;;;;;;;;;;254887;1097;103039;-71
2021/07/03 07:10:35;;;;;;;3.40;3.17;;;;;;;;;;254747;1097;103047;-73
2021/07/03 07:15:37;;;;;;;3.40;3.20;;;;;;;;;;255716;1095;103025;-72
2021/07/03 07:20:39;;;;;;;5.10;4.67;;;;;;;;;;254846;1096;103011;-72
2021/07/03 07:25:41;;;;;;;5.30;4.70;;;;;;;;;;254929;1095;103013;-73
2021/07/03 07:30:43;;;;;;;6.50;5.85;;;;;;;;;;255342;1096;103028;-72
2021/07/03 07:35:45;;;;;;;7.33;4.50;;;;;;;;;;255783;1096;103085;-74
2021/07/03 07:40:47;;;;;;;6.10;5.60;;;;;;;;;;255606;1095;103025;-74
2021/07/03 07:45:49;;;;;;;6.60;6.10;;;;;;;;;;255887;1095;103036;-73
2021/07/03 07:50:51;;;;;;;6.70;6.08;;;;;;;;;;255886;1096;103135;-74
2021/07/03 07:55:53;;;;;;;8.85;7.95;;;;;;;;;;255975;1096;103629;-74
2021/07/03 08:00:55;;;;;;;7.53;6.83;;;;;;;;;;255959;1096;103031;-73
2021/07/03 08:05:57;;;;;;;8.00;7.20;;;;;;;;;;256153;1096;103096;-74
2021/07/03 08:10:59;;;;;;;8.10;7.40;;;;;;;;;;256236;1096;103183;-74
2021/07/03 08:16:01;;;;;;;8.40;7.70;;;;;;;;;;255420;1096;103447;-72
2021/07/03 08:21:03;;;;;;;15.45;13.48;;;;;;;;;;255326;1094;103084;-77
2021/07/03 08:26:05;;;;;;;24.43;22.35;;;;;;;;;;256021;1096;103095;-76
2021/07/03 08:31:07;;;;;;;11.17;10.17;;;;;;;;;;255994;1096;103114;-77
2021/07/03 08:36:09;;;;;;;8.80;8.03;;;;;;;;;;255920;1096;103211;-72
2021/07/03 08:41:14;;;;;;;8.65;7.83;;;;;;;;;;255723;1096;103016;-72
2021/07/03 08:46:16;;;;;;;8.83;8.08;;;;;;;;;;255930;1096;103030;-73
2021/07/03 08:51:18;;;;;;;8.28;7.58;;;;;;;;;;255802;1096;103071;-75
2021/07/03 08:56:20;;;;;;;13.73;12.50;;;;;;;;;;256003;1096;103021;-74
2021/07/03 09:01:22;;;;;;;9.63;8.73;;;;;;;;;;255968;1096;103190;-74
2021/07/03 09:06:33;;;;;;;8.73;8.05;;;;;;;;;;255931;1096;103135;-77
2021/07/03 09:11:36;;;;;;;9.47;8.67;;;;;;;;;;255814;1096;103022;-73
2021/07/03 09:16:38;;;;;;;12.10;11.00;;;;;;;;;;256591;1096;103710;-76
2021/07/03 09:21:40;;;;;;;9.10;8.40;;;;;;;;;;259758;1096;103687;-73
2021/07/03 09:26:42;;;;;;;9.55;8.75;;;;;;;;;;256575;1096;103120;-75
2021/07/03 09:31:44;;;;;;;9.35;8.45;;;;;;;;;;256961;1095;103097;-74
2021/07/03 09:36:45;;;;;;;9.70;8.70;;;;;;;;;;255818;1095;103025;-78
2021/07/03 09:41:47;;;;;;;10.95;9.40;;;;;;;;;;255898;1096;103719;-75
2021/07/03 09:46:51;;;;;;;10.20;9.40;;;;;;;;;;256304;1096;103002;-75
2021/07/03 09:51:54;;;;;;;8.77;7.87;;;;;;;;;;256586;1096;103176;-77
2021/07/03 09:56:59;;;;;;;10.03;9.13;;;;;;;;;;256861;1097;103416;-73
2021/07/03 10:02:01;;;;;;;9.68;8.68;;;;;;;;;;256271;1096;103041;-79
2021/07/03 10:07:05;;;;;;;9.13;8.43;;;;;;;;;;255814;1096;103121;-75
2021/07/03 10:12:09;;;;;;;8.95;8.20;;;;;;;;;;255955;1096;103176;-74
2021/07/03 10:17:11;;;;;;;11.63;10.53;;;;;;;;;;255929;1096;103023;-75
2021/07/03 10:22:20;;;;;;;9.73;8.90;;;;;;;;;;255981;1096;103023;-75
2021/07/03 10:27:24;;;;;;;9.20;8.43;;;;;;;;;;255897;1096;103113;-74
2021/07/03 10:32:29;;;;;;;7.93;7.13;;;;;;;;;;255847;1096;103043;-73
2021/07/03 10:37:32;;;;;;;12.53;11.43;;;;;;;;;;255698;1095;103204;-74
2021/07/03 10:42:34;;;;;;;9.80;9.00;;;;;;;;;;256008;1096;103155;-73
2021/07/03 10:47:36;;;;;;;10.87;9.97;;;;;;;;;;256046;1096;103002;-76
2021/07/03 10:52:39;;;;;;;8.20;7.48;;;;;;;;;;256160;1096;103112;-75
2021/07/03 10:57:45;;;;;;;8.30;7.70;;;;;;;;;;256022;1095;103114;-73
2021/07/03 11:02:46;;;;;;;10.25;9.33;;;;;;;;;;256210;1096;103092;-73
2021/07/03 11:07:49;;;;;;;9.95;9.05;;;;;;;;;;256473;1096;103144;-78
2021/07/03 11:12:52;;;;;;;9.75;8.63;;;;;;;;;;256244;1096;103799;-76
2021/07/03 11:17:57;;;;;;;9.70;8.80;;;;;;;;;;255919;1095;103044;-76
2021/07/03 11:23:00;;;;;;;9.65;8.80;;;;;;;;;;256168;1096;103026;-74
2021/07/03 11:28:10;;;;;;;9.08;8.18;;;;;;;;;;255610;1096;103489;-75
2021/07/03 11:33:16;;;;;;;9.70;8.80;;;;;;;;;;256169;1096;103169;-74
2021/07/03 11:38:19;;;;;;;8.53;7.83;;;;;;;;;;255996;1095;103099;-74
2021/07/03 11:43:21;;;;;;;11.00;9.95;;;;;;;;;;256193;1096;103739;-75
2021/07/03 11:48:24;;;;;;;8.67;7.87;;;;;;;;;;256255;1096;111498;-76
2021/07/03 12:11:27;;;;;;;11.03;10.05;;;;;;;;;;257484;1093;103582;-75
2021/07/03 12:16:30;;;;;;;8.88;7.98;;;;;;;;;;256866;1093;103021;-75
2021/07/03 12:21:34;;;;;;;10.20;9.30;;;;;;;;;;256950;1093;103049;-76
2021/07/03 12:26:41;;;;;;;12.05;10.85;;;;;;;;;;257103;1093;103018;-75
2021/07/03 12:31:44;;;;;;;8.25;7.50;;;;;;;;;;259312;1093;103007;-79
2021/07/03 12:36:48;;;;;;;8.93;8.10;;;;;;;;;;262496;1093;102218;-81
2021/07/03 12:41:55;;;;;;;8.07;7.37;;;;;;;;;;257839;1093;103112;-76
2021/07/03 12:46:58;;;;;;;8.38;7.68;;;;;;;;;;257763;1093;103010;-75
2021/07/03 12:52:00;;;;;;;7.58;6.83;;;;;;;;;;258127;1091;103018;-75
2021/07/03 12:57:02;;;;;;;8.13;7.38;;;;;;;;;;257986;1092;103378;-75
2021/07/03 13:02:05;;;;;;;8.98;8.18;;;;;;;;;;258430;1093;102990;-75
2021/07/03 13:07:07;;;;;;;7.53;7.00;;;;;;;;;;257626;1093;103023;-79
2021/07/03 13:12:09;;;;;;;7.13;6.43;;;;;;;;;;257497;1093;103390;-77
2021/07/03 13:17:11;;;;;;;8.25;6.93;;;;;;;;;;257347;1093;103042;-79
2021/07/03 13:22:13;;;;;;;7.80;6.98;;;;;;;;;;257851;1093;103128;-79
2021/07/03 13:27:15;;;;;;;7.43;6.73;;;;;;;;;;258297;1093;103073;-80
2021/07/03 13:32:16;;;;;;;7.45;6.78;;;;;;;;;;257476;1093;103025;-80
2021/07/03 13:37:18;;;;;;;7.43;6.78;;;;;;;;;;258660;1093;103115;-80
2021/07/03 13:42:22;;;;;;;7.80;7.00;;;;;;;;;;258391;1092;103012;-79
2021/07/03 13:47:24;;;;;;;;;;;;;;;;;;257508;1093;103010;-76
2021/07/03 13:52:26;;;;;;;6.15;5.75;;;;;;;;;;260532;1093;103010;-79
2021/07/03 13:57:28;;;;;;;6.78;6.28;;;;;;;;;;259040;1093;103412;-77
2021/07/03 14:02:30;;;;;;;7.55;6.80;;;;;;;;;;258275;1096;103018;-80
2021/07/03 14:07:32;;;;;;;7.03;6.30;;;;;;;;;;257697;1092;103066;-79
2021/07/03 14:12:34;;;;;;;6.48;5.93;;;;;;;;;;257244;1093;103106;-77
2021/07/03 14:17:36;;;;;;;6.95;6.18;;;;;;;;;;258768;1093;103110;-74
2021/07/03 14:22:38;;;;;;;7.78;6.98;;;;;;;;;;258465;1093;102993;-75
2021/07/03 14:27:40;;;;;;;7.35;6.68;;;;;;;;;;256807;1093;103179;-76
2021/07/03 14:32:42;;;;;;;7.18;6.58;;;;;;;;;;256985;1093;103087;-76
2021/07/03 14:37:44;;;;;;;8.63;4.50;;;;;;;;;;256968;1093;103934;-73
2021/07/03 14:42:47;;;;;;;5.48;4.10;;;;;;;;;;257116;1092;103511;-74
2021/07/03 14:47:49;;;;;;;6.90;6.20;;;;;;;;;;257170;1093;103403;-79
2021/07/03 14:52:51;;;;;;;7.23;5.08;;;;;;;;;;257035;1092;103639;-75
2021/07/03 14:57:53;;;;;;;6.95;5.35;;;;;;;;;;256964;1092;103095;-75
2021/07/03 15:02:55;;;;;;;6.63;5.95;;;;;;;;;;256965;1092;103024;-78
2021/07/03 15:07:57;;;;;;;6.88;6.23;;;;;;;;;;257102;1093;103551;-78
2021/07/03 15:12:59;;;;;;;6.75;6.00;;;;;;;;;;257165;1093;103491;-78
2021/07/03 15:18:01;;;;;;;6.45;5.85;;;;;;;;;;257403;1092;103007;-77
2021/07/03 15:23:03;;;;;;;5.05;4.58;;;;;;;;;;257163;1093;103137;-76
2021/07/03 15:28:05;;;;;;;4.60;3.87;;;;;;;;;;257167;1093;103165;-78
2021/07/03 15:33:07;;;;;;;3.58;3.28;;;;;;;;;;257255;1093;103137;-80
2021/07/03 15:38:08;;;;;;;3.77;3.47;;;;;;;;;;257235;1093;103483;-75
2021/07/03 15:43:11;;;;;;;4.13;3.53;;;;;;;;;;257114;1092;103196;-77
2021/07/03 15:48:13;;;;;;;3.63;3.28;;;;;;;;;;257503;1093;103499;-76
2021/07/03 15:53:15;;;;;;;4.40;3.65;;;;;;;;;;261742;1092;102874;-77
2021/07/03 15:58:17;;;;;;;5.75;5.25;;;;;;;;;;259629;1093;186972;-78
2021/07/03 16:03:19;;;;;;;4.33;3.93;;;;;;;;;;258406;1093;103511;-78
2021/07/03 16:08:20;;;;;;;4.68;4.18;;;;;;;;;;260447;1092;102999;-79
2021/07/03 16:13:23;;;;;;;5.28;4.78;;;;;;;;;;258554;1093;103422;-77
2021/07/03 16:18:25;;;;;;;5.83;5.33;;;;;;;;;;257735;1093;103114;-80
2021/07/03 16:23:26;;;;;;;5.93;4.60;;;;;;;;;;257427;1093;103035;-80
2021/07/03 16:28:30;;;;;;;5.58;5.08;;;;;;;;;;258285;1093;103013;-83
2021/07/03 16:33:32;;;;;;;5.78;5.38;;;;;;;;;;258300;1093;103144;-78
2021/07/03 16:38:34;;;;;;;4.13;3.75;;;;;;;;;;258224;1092;103114;-74
2021/07/03 16:43:36;;;;;;;4.13;3.70;;;;;;;;;;256910;1093;103076;-75
2021/07/03 16:48:38;;;;;;;4.73;4.33;;;;;;;;;;256960;1093;103100;-74
2021/07/03 16:53:40;;;;;;;4.20;3.83;;;;;;;;;;257014;1093;103035;-75
2021/07/03 16:58:42;;;;;;;3.98;3.68;;;;;;;;;;257006;1093;103108;-76
2021/07/03 17:03:44;;;;;;;4.77;4.40;;;;;;;;;;256968;1091;103039;-76
2021/07/03 17:08:46;;;;;;;4.50;4.10;;;;;;;;;;256990;1093;103090;-75
2021/07/03 17:13:48;;;;;;;5.05;3.98;;;;;;;;;;256984;1092;103188;-74
2021/07/03 17:18:50;;;;;;;4.73;4.33;;;;;;;;;;256999;1093;103097;-75
2021/07/03 17:23:52;;;;;;;4.90;4.25;;;;;;;;;;257424;1092;103090;-78
2021/07/03 17:28:54;;;;;;;4.23;3.93;;;;;;;;;;257500;1092;103124;-78
2021/07/03 17:33:56;;;;;;;4.13;3.73;;;;;;;;;;257130;1093;103059;-77
2021/07/03 17:38:58;;;;;;;4.23;3.93;;;;;;;;;;257532;1092;103183;-78
2021/07/03 17:44:00;;;;;;;3.93;3.63;;;;;;;;;;257342;1092;103089;-79
2021/07/03 17:49:01;;;;;;;6.20;3.65;;;;;;;;;;257129;1091;103482;-79
2021/07/03 17:54:03;;;;;;;5.70;4.25;;;;;;;;;;257091;1093;103132;-79
2021/07/03 17:59:06;;;;;;;4.25;3.85;;;;;;;;;;257160;1093;103821;-79
2021/07/03 18:04:10;;;;;;;4.93;3.58;;;;;;;;;;257336;1092;103332;-79
2021/07/03 18:09:12;;;;;;;4.50;4.10;;;;;;;;;;257089;1093;103035;-78
2021/07/03 18:14:15;;;;;;;4.63;4.07;;;;;;;;;;257116;1092;103089;-77
2021/07/03 18:19:16;;;;;;;4.70;3.97;;;;;;;;;;257191;1093;103038;-78
2021/07/03 18:24:18;;;;;;;5.75;3.80;;;;;;;;;;257498;1093;103114;-79
2021/07/03 18:29:20;;;;;;;4.23;3.90;;;;;;;;;;258396;1093;103492;-78
2021/07/03 18:34:22;;;;;;;5.48;4.73;;;;;;;;;;258989;1093;103674;-78
2021/07/03 18:39:24;;;;;;;5.95;5.45;;;;;;;;;;258275;1093;103031;-75
2021/07/03 18:44:26;;;;;;;7.00;6.43;;;;;;;;;;257273;1093;103365;-75
2021/07/03 18:49:29;;;;;;;6.90;6.20;;;;;;;;;;257172;1093;103104;-79
2021/07/03 18:54:33;;;;;;;5.05;4.65;;;;;;;;;;257261;1093;103179;-75
2021/07/03 18:59:35;;;;;;;5.80;4.48;;;;;;;;;;257026;1092;103147;-75
2021/07/03 19:04:37;;;;;;;10.63;8.17;;;;;;;;;;257062;1092;103021;-74
2021/07/03 19:09:39;;;;;;;5.83;5.33;;;;;;;;;;257061;1093;103087;-74
2021/07/03 19:14:41;;;;;;;7.65;6.40;;;;;;;;;;257072;1093;103265;-75
2021/07/03 19:19:43;;;;;;;6.57;5.60;;;;;;;;;;257333;1093;103036;-75
2021/07/03 19:24:45;;;;;;;6.05;5.45;;;;;;;;;;257043;1092;103092;-74
2021/07/03 19:29:48;;;;;;;6.13;5.53;;;;;;;;;;256873;1092;103029;-74
2021/07/03 19:34:50;;;;;;;7.78;6.30;;;;;;;;;;256909;1092;103087;-75
2021/07/03 19:39:51;;;;;;;5.93;5.35;;;;;;;;;;256838;1093;103391;-76
2021/07/03 19:44:54;;;;;;;6.55;5.93;;;;;;;;;;256965;1094;103092;-74
2021/07/03 19:49:57;;;;;;;8.95;7.73;;;;;;;;;;256772;1095;103489;-74
2021/07/03 19:54:59;;;;;;;8.70;7.90;;;;;;;;;;256421;1095;103018;-73
2021/07/03 20:00:05;;;;;;;8.15;7.45;;;;;;;;;;256802;1095;103093;-74
2021/07/03 20:05:08;;;;;;;9.05;8.35;;;;;;;;;;256032;1096;103053;-74
2021/07/03 20:10:11;;;;;;;8.65;7.80;;;;;;;;;;256703;1095;103370;-75
2021/07/03 20:15:16;;;;;;;9.13;8.23;;;;;;;;;;256779;1096;103026;-74
2021/07/03 20:20:18;;;;;;;;;;;;;;;;;;256752;1096;103661;-74
2021/07/03 20:25:20;;;;;;;11.88;9.40;;;;;;;;;;256812;1095;103101;-76
2021/07/03 20:30:22;;;;;;;10.60;9.70;;;;;;;;;;256894;1095;103196;-78
2021/07/03 20:35:25;;;;;;;9.80;8.90;;;;;;;;;;256878;1096;103092;-76
2021/07/03 20:40:27;;;;;;;12.13;11.00;;;;;;;;;;255899;1095;103095;-78
2021/07/03 20:45:29;;;;;;;8.95;8.15;;;;;;;;;;256714;1096;103058;-75
2021/07/03 20:50:31;;;;;;;9.10;8.25;;;;;;;;;;255925;1093;103118;-76
2021/07/03 20:55:33;;;;;;;9.08;7.85;;;;;;;;;;256928;1095;103208;-75
2021/07/03 21:00:35;;;;;;;9.33;8.40;;;;;;;;;;255818;1094;103089;-75
2021/07/03 21:05:37;;;;;;;10.25;8.08;;;;;;;;;;256129;1095;103068;-73
2021/07/03 21:10:39;;;;;;;9.75;8.83;;;;;;;;;;256946;1093;103020;-75
2021/07/03 21:15:41;;;;;;;10.75;9.85;;;;;;;;;;257476;1095;102996;-76
2021/07/03 21:20:43;;;;;;;13.30;11.93;;;;;;;;;;257153;1096;103191;-76
2021/07/03 21:25:44;;;;;;;12.28;11.28;;;;;;;;;;257054;1096;103092;-77
2021/07/03 21:30:47;;;;;;;11.45;10.30;;;;;;;;;;257028;1095;103081;-77
2021/07/03 21:35:48;;;;;;;11.23;10.03;;;;;;;;;;256915;1095;103022;-78
2021/07/03 21:40:51;;;;;;;10.78;9.50;;;;;;;;;;258187;1095;103114;-78
2021/07/03 21:45:55;;;;;;;13.00;10.97;;;;;;;;;;257850;1094;103099;-78
2021/07/03 21:50:57;;;;;;;;;;;;;;;;;;256990;1096;103106;-78
2021/07/03 21:55:58;;;;;;;9.60;8.70;;;;;;;;;;257084;1095;103046;-77
2021/07/03 22:01:00;;;;;;;9.10;8.20;;;;;;;;;;257067;1095;103108;-79
2021/07/03 22:06:02;;;;;;;11.03;9.85;;;;;;;;;;257015;1095;103016;-78
2021/07/03 22:11:05;;;;;;;10.03;8.98;;;;;;;;;;256875;1096;103103;-73
2021/07/03 22:16:07;;;;;;;10.98;9.75;;;;;;;;;;256960;1094;103095;-74
2021/07/03 22:21:11;;;;;;;9.50;8.70;;;;;;;;;;256972;1093;103115;-73
2021/07/03 22:26:13;;;;;;;10.08;9.10;;;;;;;;;;261583;1096;101991;-75
2021/07/03 22:31:14;;;;;;;9.35;8.45;;;;;;;;;;256923;1094;103126;-74
2021/07/03 22:36:16;;;;;;;9.65;8.75;;;;;;;;;;256927;1095;103390;-73
2021/07/03 22:41:18;;;;;;;11.45;8.05;;;;;;;;;;256966;1096;103447;-73
2021/07/03 22:46:20;;;;;;;9.00;8.13;;;;;;;;;;257078;1094;104163;-72
2021/07/03 22:51:22;;;;;;;10.05;8.23;;;;;;;;;;256987;1095;103588;-73
2021/07/03 22:56:24;;;;;;;10.18;9.28;;;;;;;;;;257204;1096;103018;-73
2021/07/03 23:01:26;;;;;;;10.07;9.13;;;;;;;;;;257031;1094;103093;-74
2021/07/03 23:06:30;;;;;;;10.48;9.40;;;;;;;;;;256856;1095;103056;-73
2021/07/03 23:11:32;;;;;;;10.80;9.80;;;;;;;;;;257020;1092;103176;-73
2021/07/03 23:16:34;;;;;;;11.15;10.15;;;;;;;;;;256865;1095;103114;-73
2021/07/03 23:21:36;;;;;;;9.50;8.63;;;;;;;;;;256922;1093;103118;-74
2021/07/03 23:26:38;;;;;;;10.65;9.65;;;;;;;;;;255923;1093;103450;-74
2021/07/03 23:31:39;;;;;;;15.58;10.50;;;;;;;;;;257432;1096;103010;-74
2021/07/03 23:36:42;;;;;;;10.28;9.28;;;;;;;;;;257104;1097;103012;-73
2021/07/03 23:41:44;;;;;;;9.70;8.80;;;;;;;;;;257617;1095;103114;-73
2021/07/03 23:46:46;;;;;;;11.03;10.03;;;;;;;;;;256851;1093;103361;-73
2021/07/03 23:51:48;;;;;;;11.25;8.85;;;;;;;;;;256856;1093;103037;-73
2021/07/03 23:56:50;;;;;;;9.53;8.68;;;;;;;;;;256933;1095;103039;-73
